Time;durP1;ratioP1;P1;durP2;ratioP2;P2;SDS_P1;SDS_P2;PMS_P1;PMS_P2;Temp;Humidity;BMP_temperature;BMP_pressure;BME280_temperature;BME280_humidity;BME280_pressure;Samples;Min_cycle;Max_cycle;Signal;HPM_P1;HPM_P2
2022/10/28 00:01:24;;;;;;;14.52;9.77;;;16.50;99.90;;;;;;4963863;28;89949;-29
2022/10/28 00:03:55;;;;;;;16.13;10.20;;;16.40;99.90;;;;;;4963668;28;89564;-33
2022/10/28 00:06:33;;;;;;;11.65;9.38;;;16.30;99.90;;;;;;4962729;28;90206;-29
2022/10/28 00:08:59;;;;;;;12.23;9.18;;;16.30;99.90;;;;;;4963332;28;89749;-29
2022/10/28 00:11:31;;;;;;;13.73;10.40;;;16.30;99.90;;;;;;4964160;28;87562;-29
2022/10/28 00:13:58;;;;;;;15.55;9.38;;;16.20;99.90;;;;;;4963355;28;89163;-32
2022/10/28 00:16:26;;;;;;;17.53;11.40;;;16.20;99.90;;;;;;4963966;28;90394;-31
2022/10/28 00:18:52;;;;;;;15.25;11.80;;;16.20;99.90;;;;;;4962486;28;89968;-31
2022/10/28 00:21:24;;;;;;;16.63;10.10;;;16.20;99.90;;;;;;4962846;28;88543;-29
2022/10/28 00:23:49;;;;;;;15.27;10.43;;;16.10;99.90;;;;;;4962862;28;89508;-27
2022/10/28 00:26:24;;;;;;;16.67;10.60;;;16.10;99.90;;;;;;4962610;28;90449;-30
2022/10/28 00:28:53;;;;;;;18.17;11.23;;;16.00;99.90;;;;;;4962683;28;89872;-31
2022/10/28 00:31:21;;;;;;;12.15;10.43;;;15.90;99.90;;;;;;4962782;28;88031;-28
2022/10/28 00:33:46;;;;;;;16.50;10.40;;;15.90;99.90;;;;;;4962647;28;90730;-30
2022/10/28 00:36:18;;;;;;;14.52;10.13;;;15.90;99.90;;;;;;4962259;28;90453;-29
2022/10/28 00:38:45;;;;;;;14.05;9.65;;;15.80;99.90;;;;;;4962695;28;89625;-32
2022/10/28 00:41:14;;;;;;;15.68;9.90;;;15.80;99.90;;;;;;4964288;28;87546;-31
2022/10/28 00:43:42;;;;;;;11.63;10.38;;;15.70;99.90;;;;;;4963436;28;88720;-34
2022/10/28 00:46:37;;;;;;;13.88;9.73;;;15.50;99.90;;;;;;4962852;28;89074;-29
2022/10/28 00:49:11;;;;;;;12.13;9.93;;;15.40;99.90;;;;;;4962390;28;89739;-28
2022/10/28 00:51:37;;;;;;;12.75;9.05;;;15.20;99.90;;;;;;4963735;28;88820;-33
2022/10/28 00:54:04;;;;;;;12.55;10.63;;;15.10;99.90;;;;;;4962894;28;90043;-32
2022/10/28 00:56:33;;;;;;;20.00;10.95;;;15.10;99.90;;;;;;4962499;28;89416;-28
2022/10/28 00:59:01;;;;;;;14.63;10.90;;;15.10;99.90;;;;;;4961568;28;88554;-32
2022/10/28 01:01:26;;;;;;;16.60;10.07;;;15.00;99.90;;;;;;4961677;28;88395;-30
2022/10/28 01:03:54;;;;;;;13.95;11.07;;;15.00;99.90;;;;;;4962437;28;89837;-32
2022/10/28 01:06:20;;;;;;;14.25;10.63;;;15.00;99.90;;;;;;4962311;28;90373;-30
2022/10/28 01:08:46;;;;;;;17.10;10.25;;;15.00;99.90;;;;;;4961198;28;89336;-28
2022/10/28 01:11:37;;;;;;;15.38;11.82;;;15.00;99.90;;;;;;4962226;28;88289;-28
2022/10/28 01:14:54;;;;;;;17.30;11.68;;;14.90;99.90;;;;;;4962173;28;88422;-32
2022/10/28 01:17:50;;;;;;;16.13;10.48;;;14.90;99.90;;;;;;4949866;28;90324;-28
2022/10/28 01:20:34;;;;;;;13.77;11.88;;;14.80;99.90;;;;;;4961939;28;89712;-29
2022/10/28 01:23:32;;;;;;;19.13;10.63;;;14.80;99.90;;;;;;4961353;28;88999;-32
2022/10/28 01:26:16;;;;;;;13.48;10.40;;;14.80;99.90;;;;;;4961597;28;88362;-29
2022/10/28 01:28:57;;;;;;;17.67;11.13;;;14.80;99.90;;;;;;4962071;28;90393;-27
2022/10/28 01:31:44;;;;;;;13.80;11.48;;;14.90;99.90;;;;;;4962067;28;89739;-29
2022/10/28 01:34:31;;;;;;;15.25;12.25;;;14.90;99.90;;;;;;4961592;28;89233;-32
2022/10/28 01:36:59;;;;;;;16.77;11.50;;;14.90;99.90;;;;;;4960765;28;88190;-32
2022/10/28 01:39:41;;;;;;;19.98;10.68;;;15.00;99.90;;;;;;4962076;28;90369;-28
2022/10/28 01:42:27;;;;;;;15.02;10.20;;;15.00;99.90;;;;;;4961599;28;90032;-28
2022/10/28 01:45:05;;;;;;;15.55;12.10;;;15.00;99.90;;;;;;4961011;28;87479;-30
2022/10/28 01:47:40;;;;;;;14.63;9.63;;;14.90;99.90;;;;;;4961384;28;88425;-29
2022/10/28 01:50:24;;;;;;;19.48;11.25;;;14.90;99.90;;;;;;4962744;28;90603;-33
2022/10/28 01:52:53;;;;;;;15.02;10.32;;;14.80;99.90;;;;;;4961349;28;89413;-31
2022/10/28 01:55:26;;;;;;;13.73;10.15;;;14.70;99.90;;;;;;4961379;28;88394;-30
2022/10/28 01:57:56;;;;;;;14.05;10.65;;;14.60;99.90;;;;;;4962085;28;88618;-31
2022/10/28 02:00:21;;;;;;;14.50;10.60;;;14.60;99.90;;;;;;4961525;28;90171;-32
2022/10/28 02:02:49;;;;;;;15.93;10.63;;;14.50;99.90;;;;;;4961233;28;90008;-32
2022/10/28 02:05:34;;;;;;;14.27;11.17;;;14.50;99.90;;;;;;4960657;28;87548;-30
2022/10/28 02:08:11;;;;;;;11.77;10.18;;;14.40;99.90;;;;;;4961503;28;87951;-28
2022/10/28 02:10:47;;;;;;;17.40;10.88;;;14.40;99.90;;;;;;4961148;28;91020;-29
2022/10/28 02:13:14;;;;;;;13.27;11.57;;;14.30;99.90;;;;;;4960919;28;89636;-30
2022/10/28 02:15:59;;;;;;;17.77;11.97;;;14.30;99.90;;;;;;4961073;28;87981;-33
2022/10/28 02:18:44;;;;;;;18.73;11.40;;;14.30;99.90;;;;;;4961977;28;87586;-31
2022/10/28 02:21:33;;;;;;;15.38;10.98;;;14.30;99.90;;;;;;4960224;28;91430;-31
2022/10/28 02:24:20;;;;;;;19.25;12.23;;;14.30;99.90;;;;;;4960519;28;90369;-30
2022/10/28 02:27:05;;;;;;;14.63;11.23;;;14.30;99.90;;;;;;4960526;28;87547;-28
2022/10/28 02:29:43;;;;;;;15.80;10.27;;;14.30;99.90;;;;;;4961284;28;87602;-30
2022/10/28 02:32:14;;;;;;;14.32;11.45;;;14.10;99.90;;;;;;4961527;28;89967;-32
2022/10/28 02:34:45;;;;;;;16.40;10.45;;;14.10;99.90;;;;;;4960220;28;89317;-29
2022/10/28 02:37:16;;;;;;;12.02;10.10;;;14.00;99.90;;;;;;4960410;28;89246;-33
2022/10/28 02:39:47;;;;;;;14.90;11.55;;;14.00;99.90;;;;;;4960025;28;89638;-28
2022/10/28 02:42:24;;;;;;;12.73;10.10;;;14.00;99.90;;;;;;4960743;28;92506;-29
2022/10/28 02:44:59;;;;;;;17.00;10.02;;;13.90;99.90;;;;;;4960397;28;89797;-30
2022/10/28 02:47:29;;;;;;;15.00;10.98;;;13.90;99.90;;;;;;4961099;28;88340;-31
2022/10/28 02:50:00;;;;;;;16.58;11.13;;;13.90;99.90;;;;;;4960424;28;87616;-31
2022/10/28 02:52:29;;;;;;;16.50;11.27;;;13.90;99.90;;;;;;4960393;28;90423;-28
2022/10/28 02:54:57;;;;;;;14.55;11.93;;;13.90;99.90;;;;;;4960926;28;90381;-31
2022/10/28 02:57:26;;;;;;;15.45;10.32;;;13.90;99.90;;;;;;4961340;28;89215;-28
2022/10/28 03:00:00;;;;;;;15.15;11.13;;;13.90;99.90;;;;;;4960563;28;88798;-28
2022/10/28 03:02:26;;;;;;;12.75;10.45;;;13.80;99.90;;;;;;4959642;28;90430;-29
2022/10/28 03:04:52;;;;;;;14.32;11.02;;;13.80;99.90;;;;;;4960027;28;89744;-29
2022/10/28 03:07:18;;;;;;;14.63;12.25;;;13.80;99.90;;;;;;4960419;28;89034;-29
2022/10/28 03:09:44;;;;;;;22.25;13.65;;;13.80;99.90;;;;;;4960065;28;88409;-29
2022/10/28 03:12:09;;;;;;;17.88;12.30;;;13.90;99.90;;;;;;4960457;28;91513;-31
2022/10/28 03:14:35;;;;;;;17.77;10.73;;;13.90;99.90;;;;;;4959910;28;89800;-29
2022/10/28 03:17:01;;;;;;;14.30;12.27;;;13.90;99.90;;;;;;4959811;28;88234;-32
2022/10/28 03:19:26;;;;;;;12.60;10.02;;;13.90;99.90;;;;;;4960056;28;88403;-31
2022/10/28 03:21:52;;;;;;;20.75;11.57;;;13.80;99.90;;;;;;4952512;28;90071;-29
2022/10/28 03:24:18;;;;;;;12.32;10.50;;;13.90;99.90;;;;;;4954357;28;89401;-30
2022/10/28 03:26:43;;;;;;;19.52;13.15;;;13.80;99.90;;;;;;4960595;28;88571;-31
2022/10/28 03:29:09;;;;;;;12.73;10.82;;;13.80;99.90;;;;;;4960395;28;87694;-30
2022/10/28 03:31:34;;;;;;;16.58;10.52;;;13.80;99.90;;;;;;4959918;28;90054;-29
2022/10/28 03:34:00;;;;;;;14.32;11.30;;;13.70;99.90;;;;;;4960467;28;89702;-30
2022/10/28 03:36:26;;;;;;;21.35;11.27;;;13.80;99.90;;;;;;4959007;28;88857;-31
2022/10/28 03:38:51;;;;;;;16.48;12.45;;;13.70;99.90;;;;;;4960210;28;87940;-28
2022/10/28 03:41:17;;;;;;;17.48;11.00;;;13.70;99.90;;;;;;4959856;28;90886;-31
2022/10/28 03:43:43;;;;;;;12.52;10.93;;;13.70;99.90;;;;;;4960234;28;89976;-30
2022/10/28 03:46:08;;;;;;;15.13;12.25;;;13.70;99.90;;;;;;4960403;28;87520;-32
2022/10/28 03:48:34;;;;;;;20.77;13.55;;;13.70;99.90;;;;;;4959805;28;89896;-29
2022/10/28 03:51:00;;;;;;;20.63;12.20;;;13.70;99.90;;;;;;4959640;28;90467;-28
2022/10/28 03:53:25;;;;;;;17.98;11.55;;;13.70;99.90;;;;;;4959716;28;89794;-28
2022/10/28 03:55:52;;;;;;;15.13;12.32;;;13.80;99.90;;;;;;4960156;28;88152;-30
2022/10/28 03:58:18;;;;;;;15.20;11.57;;;13.80;99.90;;;;;;4960528;28;87837;-29
2022/10/28 04:00:46;;;;;;;16.85;11.85;;;13.80;99.90;;;;;;4959622;28;90226;-29
2022/10/28 04:03:11;;;;;;;17.23;11.77;;;13.80;99.90;;;;;;4959615;28;89400;-29
2022/10/28 04:05:37;;;;;;;23.25;12.88;;;13.80;99.90;;;;;;4959074;28;89048;-31
2022/10/28 04:08:02;;;;;;;16.33;10.07;;;13.80;99.90;;;;;;4959072;28;88114;-28
2022/10/28 04:10:28;;;;;;;17.50;11.30;;;13.90;99.90;;;;;;4959648;28;90236;-31
2022/10/28 04:13:01;;;;;;;34.17;12.80;;;13.90;99.90;;;;;;4959038;28;89451;-34
2022/10/28 04:15:26;;;;;;;15.52;12.90;;;13.90;99.90;;;;;;4959773;28;88085;-28
2022/10/28 04:17:52;;;;;;;17.17;10.93;;;13.90;99.90;;;;;;4959208;28;89978;-29
2022/10/28 04:20:18;;;;;;;13.55;10.95;;;13.90;99.90;;;;;;4959476;28;91260;-30
2022/10/28 04:22:43;;;;;;;12.63;10.48;;;13.90;99.90;;;;;;4959097;28;90192;-29
2022/10/28 04:25:09;;;;;;;17.35;10.57;;;13.80;99.90;;;;;;4959596;28;87742;-30
2022/10/28 04:27:35;;;;;;;19.75;13.10;;;13.80;99.90;;;;;;4959766;28;87618;-30
2022/10/28 04:30:01;;;;;;;14.77;10.95;;;13.80;99.90;;;;;;4958275;28;90678;-31
2022/10/28 04:32:27;;;;;;;12.85;10.77;;;13.80;99.90;;;;;;4959663;28;89475;-29
2022/10/28 04:34:53;;;;;;;17.45;10.25;;;13.80;99.90;;;;;;4993181;22;89172;-30
2022/10/28 04:37:18;;;;;;;18.45;12.30;;;13.70;99.90;;;;;;4938446;28;87775;-31
2022/10/28 04:39:44;;;;;;;14.98;10.68;;;13.70;99.90;;;;;;4939099;28;89716;-31
2022/10/28 04:42:09;;;;;;;16.95;10.45;;;13.70;99.90;;;;;;4939385;28;89944;-29
2022/10/28 04:44:35;;;;;;;15.55;11.63;;;13.60;99.90;;;;;;4943601;28;88365;-28
2022/10/28 04:47:00;;;;;;;12.15;9.80;;;13.60;99.90;;;;;;4942836;28;88993;-29
2022/10/28 04:49:26;;;;;;;14.65;12.80;;;13.50;99.90;;;;;;4942092;28;90179;-29
2022/10/28 04:51:51;;;;;;;13.77;11.85;;;13.50;99.90;;;;;;4942187;28;89329;-28
2022/10/28 04:54:17;;;;;;;13.20;10.48;;;13.40;99.90;;;;;;4943331;28;87809;-29
2022/10/28 04:56:43;;;;;;;16.23;11.25;;;13.30;99.90;;;;;;4942681;28;87931;-30
2022/10/28 04:59:08;;;;;;;14.40;11.27;;;13.30;99.90;;;;;;4943587;28;90119;-29
2022/10/28 05:01:34;;;;;;;15.80;11.35;;;13.30;99.90;;;;;;4942911;28;89712;-29
2022/10/28 05:04:00;;;;;;;14.95;12.20;;;13.30;99.90;;;;;;4942414;28;90298;-29
2022/10/28 05:06:25;;;;;;;13.20;9.63;;;13.30;99.90;;;;;;4943019;28;88345;-30
2022/10/28 05:08:51;;;;;;;13.55;10.30;;;13.20;99.90;;;;;;4942997;28;90357;-27
2022/10/28 05:11:16;;;;;;;18.92;11.48;;;13.20;99.90;;;;;;4942671;28;89709;-32
2022/10/28 05:13:42;;;;;;;16.50;11.23;;;13.20;99.90;;;;;;4942776;28;87925;-28
2022/10/28 05:16:08;;;;;;;13.75;11.93;;;13.10;99.90;;;;;;4942105;28;89427;-29
2022/10/28 05:18:33;;;;;;;18.48;12.65;;;13.10;99.90;;;;;;4943096;28;90184;-29
2022/10/28 05:20:59;;;;;;;19.15;12.20;;;13.10;99.90;;;;;;4941786;28;89617;-29
2022/10/28 05:23:24;;;;;;;16.70;12.98;;;13.10;99.90;;;;;;4943416;28;87537;-32
2022/10/28 05:25:50;;;;;;;19.95;12.25;;;13.00;99.90;;;;;;4940693;28;89760;-29
2022/10/28 05:28:17;;;;;;;12.15;10.85;;;13.00;99.90;;;;;;4941122;28;90019;-31
2022/10/28 05:30:43;;;;;;;15.50;10.88;;;13.00;99.90;;;;;;4942474;28;89373;-30
2022/10/28 05:33:10;;;;;;;16.42;11.05;;;13.00;99.90;;;;;;4942592;28;88902;-32
2022/10/28 05:35:36;;;;;;;13.60;10.82;;;12.90;99.90;;;;;;4942253;28;88215;-32
2022/10/28 05:38:02;;;;;;;21.27;11.57;;;12.90;99.90;;;;;;4942038;28;90614;-29
2022/10/28 05:40:28;;;;;;;14.30;10.07;;;12.90;99.90;;;;;;4941241;28;89441;-31
2022/10/28 05:42:54;;;;;;;14.25;12.05;;;12.80;99.90;;;;;;4942600;28;90023;-32
2022/10/28 05:45:19;;;;;;;18.10;11.30;;;12.80;99.90;;;;;;4942102;28;89608;-28
2022/10/28 05:47:46;;;;;;;15.20;11.75;;;12.80;99.90;;;;;;4941789;28;89988;-32
2022/10/28 05:50:13;;;;;;;15.73;12.07;;;12.70;99.90;;;;;;4941721;28;89806;-28
2022/10/28 05:52:43;;;;;;;18.75;15.32;;;12.70;99.90;;;;;;4941781;28;88848;-34
2022/10/28 05:55:09;;;;;;;18.27;14.43;;;12.70;99.90;;;;;;4941327;28;88828;-29
2022/10/28 05:57:34;;;;;;;16.77;11.90;;;12.70;99.90;;;;;;4942461;28;90580;-29
2022/10/28 06:00:01;;;;;;;15.80;10.30;;;12.70;99.90;;;;;;4942235;28;90328;-29
2022/10/28 06:02:26;;;;;;;21.58;12.43;;;12.60;99.90;;;;;;4940341;28;88991;-29
2022/10/28 06:04:52;;;;;;;13.90;11.48;;;12.70;99.90;;;;;;4941391;28;89407;-31
2022/10/28 06:07:18;;;;;;;17.95;12.90;;;12.70;99.90;;;;;;4940793;28;90849;-30
2022/10/28 06:09:43;;;;;;;17.75;12.07;;;12.70;99.90;;;;;;4941269;28;89436;-32
2022/10/28 06:12:09;;;;;;;23.10;12.40;;;12.70;99.90;;;;;;4941178;28;88993;-30
2022/10/28 06:14:34;;;;;;;14.50;10.88;;;12.80;99.90;;;;;;4940946;28;89667;-32
2022/10/28 06:17:00;;;;;;;16.25;11.02;;;12.80;99.90;;;;;;4941044;28;90522;-29
2022/10/28 06:19:25;;;;;;;17.83;11.50;;;12.80;99.90;;;;;;4941275;28;89571;-30
2022/10/28 06:21:51;;;;;;;20.00;11.13;;;12.70;99.90;;;;;;4941065;28;87583;-29
2022/10/28 06:24:16;;;;;;;20.33;13.57;;;12.70;99.90;;;;;;4941705;28;89321;-30
2022/10/28 06:26:42;;;;;;;13.63;10.95;;;12.70;99.90;;;;;;4941557;28;89924;-28
2022/10/28 06:29:11;;;;;;;15.38;11.65;;;12.70;99.90;;;;;;4941101;28;90102;-30
2022/10/28 06:31:41;;;;;;;14.45;11.77;;;12.70;99.90;;;;;;4940904;28;88420;-32
2022/10/28 06:34:08;;;;;;;15.13;12.90;;;12.70;99.90;;;;;;4941014;28;87904;-30
2022/10/28 06:36:33;;;;;;;15.77;12.30;;;12.70;99.90;;;;;;4940504;28;90197;-30
2022/10/28 06:38:59;;;;;;;13.23;11.30;;;12.70;99.90;;;;;;4941239;28;89585;-30
2022/10/28 06:41:25;;;;;;;15.35;12.10;;;12.70;99.90;;;;;;4940483;28;87575;-29
2022/10/28 06:43:50;;;;;;;16.85;12.45;;;12.70;99.90;;;;;;4941406;28;87558;-31
2022/10/28 06:46:16;;;;;;;16.58;12.10;;;12.80;99.90;;;;;;4940752;28;91984;-28
2022/10/28 06:48:41;;;;;;;22.25;14.05;;;12.80;99.90;;;;;;4941301;28;89624;-29
2022/10/28 06:51:07;;;;;;;20.27;11.73;;;12.90;99.90;;;;;;4941002;28;88717;-30
2022/10/28 06:53:32;;;;;;;14.30;12.13;;;12.90;99.90;;;;;;4940038;28;87663;-28
2022/10/28 06:55:58;;;;;;;23.77;13.07;;;12.90;99.90;;;;;;4939838;28;90526;-31
2022/10/28 06:58:24;;;;;;;15.65;13.98;;;12.90;99.90;;;;;;4940635;28;89912;-33
2022/10/28 07:00:51;;;;;;;19.92;12.45;;;13.00;99.90;;;;;;4940814;28;89602;-32
2022/10/28 07:03:17;;;;;;;16.08;11.55;;;13.00;99.90;;;;;;4941310;28;89329;-28
2022/10/28 07:05:44;;;;;;;24.40;12.18;;;13.10;99.90;;;;;;4937596;28;89997;-27
2022/10/28 07:08:10;;;;;;;16.38;11.45;;;13.20;99.90;;;;;;4940570;28;89864;-32
2022/10/28 07:10:35;;;;;;;17.00;11.80;;;13.30;99.90;;;;;;4940516;28;89799;-30
2022/10/28 07:13:01;;;;;;;19.10;10.88;;;13.50;99.90;;;;;;4940156;28;89602;-32
2022/10/28 07:15:26;;;;;;;19.25;11.02;;;13.70;99.90;;;;;;4938382;28;90327;-29
2022/10/28 07:17:57;;;;;;;14.55;9.63;;;13.80;99.90;;;;;;4936109;28;89532;-28
2022/10/28 07:20:25;;;;;;;21.40;11.57;;;14.00;99.90;;;;;;4939280;28;89896;-28
2022/10/28 07:23:01;;;;;;;15.50;10.75;;;14.10;99.90;;;;;;4937951;28;88374;-30
2022/10/28 07:25:28;;;;;;;22.13;11.15;;;14.20;99.90;;;;;;4938130;28;90352;-33
2022/10/28 07:27:57;;;;;;;17.48;10.98;;;14.30;99.90;;;;;;4934131;28;89280;-30
2022/10/28 07:30:22;;;;;;;;;;;14.40;99.90;;;;;;4944878;28;88070;-29
2022/10/28 07:32:48;;;;;;;16.80;10.73;;;14.50;99.90;;;;;;4939234;28;90466;-29
2022/10/28 07:35:13;;;;;;;22.52;11.68;;;14.60;99.90;;;;;;4937403;28;90417;-30
2022/10/28 07:37:39;;;;;;;18.48;10.45;;;14.70;99.90;;;;;;4937450;28;89711;-34
2022/10/28 07:40:06;;;;;;;16.65;10.55;;;14.70;99.90;;;;;;4937397;28;88167;-32
2022/10/28 07:42:34;;;;;;;21.98;10.30;;;14.90;99.90;;;;;;4936868;28;88023;-30
2022/10/28 07:45:00;;;;;;;18.73;11.05;;;14.90;99.90;;;;;;4937039;28;90442;-30
2022/10/28 07:47:26;;;;;;;18.13;9.90;;;15.10;99.90;;;;;;4938023;28;90472;-32
2022/10/28 07:49:53;;;;;;;16.63;11.20;;;15.20;99.90;;;;;;4937261;28;89765;-30
2022/10/28 07:52:19;;;;;;;14.63;9.43;;;15.30;99.90;;;;;;4937369;28;89049;-32
2022/10/28 07:54:45;;;;;;;16.55;9.55;;;15.50;99.90;;;;;;4937804;28;89938;-32
2022/10/28 07:57:10;;;;;;;15.70;10.43;;;15.60;99.90;;;;;;4937814;28;91156;-30
2022/10/28 07:59:36;;;;;;;18.15;10.35;;;15.70;99.90;;;;;;4936988;28;89320;-30
2022/10/28 08:02:02;;;;;;;14.48;9.90;;;15.80;99.90;;;;;;4937344;28;88079;-28
2022/10/28 08:04:30;;;;;;;20.05;9.68;;;15.90;99.90;;;;;;4937603;28;90351;-31
2022/10/28 08:06:55;;;;;;;12.67;8.70;;;16.10;99.90;;;;;;4937954;28;89716;-34
2022/10/28 08:09:21;;;;;;;18.75;9.88;;;16.20;99.90;;;;;;4938165;28;89760;-31
2022/10/28 08:11:46;;;;;;;13.40;8.93;;;16.30;99.90;;;;;;4938328;28;88442;-30
2022/10/28 08:14:12;;;;;;;12.25;8.88;;;16.40;99.90;;;;;;4939047;28;89420;-32
2022/10/28 08:16:38;;;;;;;17.02;9.98;;;16.40;99.90;;;;;;4938010;28;89477;-31
2022/10/28 08:19:03;;;;;;;12.25;9.15;;;16.50;99.90;;;;;;4939780;28;89337;-33
2022/10/28 08:21:29;;;;;;;21.50;9.60;;;16.50;99.90;;;;;;4941060;28;88631;-32
2022/10/28 08:23:55;;;;;;;14.07;9.10;;;16.50;99.90;;;;;;4941452;28;90307;-31
2022/10/28 08:26:20;;;;;;;15.45;8.70;;;16.60;99.90;;;;;;4941906;28;89755;-31
2022/10/28 08:28:46;;;;;;;14.07;8.80;;;16.60;99.90;;;;;;4941951;28;88415;-31
2022/10/28 08:31:12;;;;;;;12.23;8.63;;;16.70;99.90;;;;;;4941694;28;87944;-32
2022/10/28 08:33:41;;;;;;;10.55;9.18;;;16.70;99.90;;;;;;4941260;28;90111;-31
2022/10/28 08:36:08;;;;;;;18.48;10.52;;;16.80;99.90;;;;;;4940321;28;89655;-34
2022/10/28 08:38:33;;;;;;;15.57;9.20;;;16.90;99.90;;;;;;4940552;28;88648;-32
2022/10/28 08:41:34;;;;;;;17.95;9.63;;;16.90;99.90;;;;;;4941390;28;87734;-31
2022/10/28 08:44:30;;;;;;;17.98;9.20;;;17.00;99.90;;;;;;4932945;28;90218;-34
2022/10/28 08:47:22;;;;;;;11.50;7.53;;;17.10;99.90;;;;;;4941732;28;90243;-33
2022/10/28 08:49:55;;;;;;;16.00;9.85;;;17.20;99.90;;;;;;4940827;28;89736;-31
2022/10/28 08:52:33;;;;;;;26.48;8.43;;;17.30;99.90;;;;;;4941895;28;89237;-32
2022/10/28 08:55:13;;;;;;;12.95;8.35;;;17.30;99.90;;;;;;4941344;28;90143;-31
2022/10/28 08:58:05;;;;;;;15.82;9.18;;;17.40;99.90;;;;;;4941036;28;89503;-32
2022/10/28 09:00:32;;;;;;;14.90;8.07;;;17.50;99.90;;;;;;4937619;28;88930;-33
2022/10/28 09:03:07;;;;;;;11.70;8.98;;;17.60;99.90;;;;;;4941316;28;89092;-30
2022/10/28 09:05:33;;;;;;;10.20;7.95;;;17.60;99.90;;;;;;4940084;28;90092;-30
2022/10/28 09:08:00;;;;;;;10.13;7.68;;;17.80;99.90;;;;;;4940726;28;89707;-32
2022/10/28 09:10:57;;;;;;;9.25;6.75;;;17.90;99.90;;;;;;4940479;28;88854;-32
2022/10/28 09:13:46;;;;;;;13.50;7.78;;;18.00;99.90;;;;;;4940849;28;89690;-35
2022/10/28 09:16:26;;;;;;;13.50;7.90;;;18.20;99.90;;;;;;4940654;28;89904;-31
2022/10/28 09:18:57;;;;;;;16.10;11.25;;;18.30;99.90;;;;;;4940721;28;88380;-30
2022/10/28 09:21:43;;;;;;;20.23;8.93;;;18.40;99.90;;;;;;4939977;28;88075;-29
2022/10/28 09:24:19;;;;;;;12.18;7.00;;;18.50;99.90;;;;;;4941013;28;88257;-31
2022/10/28 09:26:55;;;;;;;19.50;7.60;;;18.60;99.90;;;;;;4940632;28;90793;-32
2022/10/28 09:29:43;;;;;;;27.83;9.57;;;18.60;99.90;;;;;;4940428;28;89507;-32
2022/10/28 09:32:20;;;;;;;12.85;6.95;;;18.60;99.90;;;;;;4940462;28;88234;-34
2022/10/28 09:35:00;;;;;;;14.38;7.50;;;18.70;99.90;;;;;;4938872;28;89155;-34
2022/10/28 09:37:35;;;;;;;13.15;6.40;;;18.70;99.90;;;;;;4940492;28;90439;-31
2022/10/28 09:40:23;;;;;;;15.07;7.53;;;18.70;99.90;;;;;;4940113;28;89875;-31
2022/10/28 09:42:58;;;;;;;;;;;18.70;99.90;;;;;;4940820;28;88895;-34
2022/10/28 09:45:27;;;;;;;13.18;7.78;;;18.70;99.90;;;;;;4942125;28;88489;-32
2022/10/28 09:48:01;;;;;;;12.73;7.13;;;18.80;99.90;;;;;;4940229;28;89072;-31
2022/10/28 09:50:30;;;;;;;11.27;7.80;;;18.90;99.90;;;;;;4940343;28;89879;-32
2022/10/28 09:52:58;;;;;;;13.93;8.07;;;18.90;99.90;;;;;;4940620;28;89878;-32
2022/10/28 09:55:24;;;;;;;16.02;7.90;;;18.80;99.90;;;;;;4940239;28;89382;-34
2022/10/28 09:57:50;;;;;;;14.38;7.10;;;18.80;99.90;;;;;;4939756;28;89790;-30
2022/10/28 10:00:16;;;;;;;9.00;6.57;;;18.80;99.90;;;;;;4939513;28;89718;-30
2022/10/28 10:02:43;;;;;;;16.02;8.32;;;18.80;99.90;;;;;;4940398;28;88170;-31
2022/10/28 10:05:17;;;;;;;12.27;7.55;;;18.80;99.90;;;;;;4940820;28;89444;-31
2022/10/28 10:07:50;;;;;;;12.93;7.65;;;18.80;99.90;;;;;;4940142;28;90172;-33
2022/10/28 10:10:22;;;;;;;12.35;7.03;;;18.80;99.90;;;;;;4940428;28;89299;-31
2022/10/28 10:12:54;;;;;;;13.40;7.95;;;18.80;99.90;;;;;;4938850;28;89618;-31
2022/10/28 10:15:42;;;;;;;16.23;7.82;;;18.80;99.90;;;;;;4939786;28;88829;-34
2022/10/28 10:18:15;;;;;;;14.27;8.13;;;18.70;99.90;;;;;;4940248;28;90402;-30
2022/10/28 10:20:50;;;;;;;10.52;6.10;;;18.70;99.90;;;;;;4938967;28;88690;-33
2022/10/28 10:23:33;;;;;;;12.05;7.53;;;18.70;99.90;;;;;;4939467;28;87838;-32
2022/10/28 10:26:04;;;;;;;14.63;11.95;;;18.70;99.90;;;;;;4926334;28;88510;-31
2022/10/28 10:28:31;;;;;;;14.55;7.45;;;18.70;99.90;;;;;;4938400;28;91083;-33
2022/10/28 10:30:59;;;;;;;14.82;7.88;;;18.70;99.90;;;;;;4938865;28;89738;-32
2022/10/28 10:33:38;;;;;;;17.88;8.13;;;18.70;99.90;;;;;;4939209;28;88815;-33
2022/10/28 10:36:13;;;;;;;17.45;7.93;;;18.70;99.90;;;;;;4936394;28;88373;-32
2022/10/28 10:38:48;;;;;;;22.30;8.60;;;18.70;99.90;;;;;;4930108;28;90288;-30
2022/10/28 10:41:33;;;;;;;9.63;7.07;;;18.70;99.90;;;;;;4938594;28;89230;-34
2022/10/28 10:43:58;;;;;;;13.65;7.65;;;18.80;99.90;;;;;;4932329;28;87574;-32
2022/10/28 10:46:24;;;;;;;17.05;7.82;;;18.80;99.90;;;;;;4938802;28;89705;-32
2022/10/28 10:49:10;;;;;;;11.07;8.13;;;18.80;99.90;;;;;;4939129;28;90436;-30
2022/10/28 10:51:36;;;;;;;16.40;8.52;;;18.90;99.90;;;;;;4939189;28;88673;-33
2022/10/28 10:54:02;;;;;;;14.93;7.57;;;18.90;99.90;;;;;;4939553;28;89504;-33
2022/10/28 10:56:30;;;;;;;13.60;6.93;;;19.00;99.90;;;;;;4938404;28;90516;-30
2022/10/28 10:59:02;;;;;;;14.43;6.75;;;19.00;99.90;;;;;;4938082;28;90659;-31
2022/10/28 11:01:34;;;;;;;12.23;6.50;;;19.10;99.90;;;;;;4937519;28;89982;-32
2022/10/28 11:04:06;;;;;;;11.65;6.63;;;19.10;99.90;;;;;;4937397;28;89967;-31
2022/10/28 11:06:36;;;;;;;24.10;8.02;;;19.10;99.90;;;;;;4938925;28;89290;-34
2022/10/28 11:09:17;;;;;;;12.40;7.13;;;19.20;99.90;;;;;;4939300;28;89921;-33
2022/10/28 11:11:43;;;;;;;14.15;7.35;;;19.20;99.90;;;;;;4939155;28;90099;-32
2022/10/28 11:14:08;;;;;;;9.13;6.10;;;19.20;99.90;;;;;;4939089;28;89982;-32
2022/10/28 11:17:00;;;;;;;15.13;7.10;;;19.20;99.90;;;;;;4939333;28;88924;-34
2022/10/28 11:19:30;;;;;;;11.55;6.65;;;19.20;99.90;;;;;;4940484;28;88986;-32
2022/10/28 11:22:41;;;;;;;13.30;8.70;;;19.20;99.90;;;;;;4940776;28;89024;-33
2022/10/28 11:25:32;;;;;;;12.60;6.78;;;19.30;99.90;;;;;;4940127;28;88227;-32
2022/10/28 11:28:10;;;;;;;12.95;7.43;;;19.40;99.90;;;;;;4941386;28;88331;-33
2022/10/28 11:30:42;;;;;;;14.80;7.13;;;19.60;99.90;;;;;;4941808;28;90462;-31
2022/10/28 11:33:13;;;;;;;19.15;6.78;;;19.80;99.90;;;;;;4940868;28;89689;-31
2022/10/28 11:35:55;;;;;;;12.88;7.57;;;20.00;99.90;;;;;;4941072;28;87549;-32
2022/10/28 11:38:45;;;;;;;11.48;6.95;;;20.20;99.90;;;;;;4941540;28;87551;-34
2022/10/28 11:41:45;;;;;;;15.90;6.88;;;20.40;99.90;;;;;;4941773;28;90368;-32
2022/10/28 11:44:18;;;;;;;11.90;7.88;;;20.50;99.90;;;;;;4941308;28;89657;-34
2022/10/28 11:47:10;;;;;;;12.60;6.90;;;20.60;99.90;;;;;;4940675;28;90237;-30
2022/10/28 11:50:05;;;;;;;9.95;6.75;;;20.60;99.90;;;;;;4930961;28;88218;-34
2022/10/28 11:52:42;;;;;;;14.77;7.35;;;20.60;99.90;;;;;;4942885;28;90794;-33
2022/10/28 11:55:26;;;;;;;10.23;6.80;;;20.60;99.90;;;;;;4944554;28;89364;-35
2022/10/28 11:58:17;;;;;;;11.80;5.95;;;20.60;99.90;;;;;;4944182;28;89754;-33
2022/10/28 12:00:52;;;;;;;12.00;6.90;;;20.60;99.90;;;;;;4944213;28;89082;-32
2022/10/28 12:03:42;;;;;;;11.52;6.80;;;20.70;99.90;;;;;;4945334;28;90127;-31
2022/10/28 12:06:16;;;;;;;18.20;6.95;;;20.80;99.90;;;;;;4945028;28;90203;-31
2022/10/28 12:08:59;;;;;;;13.25;6.55;;;20.80;99.90;;;;;;4944183;28;87491;-35
2022/10/28 12:11:34;;;;;;;12.18;5.75;;;20.90;99.90;;;;;;4944718;28;88363;-32
2022/10/28 12:14:18;;;;;;;14.43;6.32;;;20.90;99.90;;;;;;4943946;28;91690;-33
2022/10/28 12:16:54;;;;;;;12.55;6.80;;;20.90;99.90;;;;;;4944486;28;89526;-34
2022/10/28 12:19:28;;;;;;;8.88;6.35;;;20.90;99.90;;;;;;4943546;28;89726;-31
2022/10/28 12:22:22;;;;;;;7.50;5.68;;;20.80;99.90;;;;;;4944095;28;87534;-31
2022/10/28 12:24:49;;;;;;;12.65;6.50;;;20.80;99.90;;;;;;4944119;28;90447;-31
2022/10/28 12:27:24;;;;;;;11.43;6.77;;;20.80;99.90;;;;;;4944043;28;89710;-31
2022/10/28 12:29:56;;;;;;;10.07;5.75;;;20.90;99.90;;;;;;4943752;28;89025;-32
2022/10/28 12:32:28;;;;;;;14.68;5.82;;;20.80;99.90;;;;;;4943986;28;88389;-32
2022/10/28 12:35:39;;;;;;;12.88;6.60;;;20.80;99.90;;;;;;4943619;28;90344;-32
2022/10/28 12:38:32;;;;;;;8.68;6.47;;;20.80;99.90;;;;;;4942425;28;91482;-33
2022/10/28 12:41:15;;;;;;;9.63;5.78;;;20.80;99.90;;;;;;4944450;28;89292;-32
2022/10/28 12:43:49;;;;;;;11.75;6.22;;;20.80;99.90;;;;;;4943950;28;88833;-32
2022/10/28 12:46:43;;;;;;;10.70;6.63;;;20.90;99.90;;;;;;4944036;28;90154;-30
2022/10/28 12:49:19;;;;;;;13.57;8.15;;;20.80;99.90;;;;;;4943173;28;90248;-32
2022/10/28 12:51:45;;;;;;;15.73;7.55;;;20.80;99.90;;;;;;4943613;28;89461;-32
2022/10/28 12:54:24;;;;;;;20.15;6.78;;;20.90;99.90;;;;;;4943962;28;88695;-30